Time;durP1;ratioP1;P1;durP2;ratioP2;P2;SDS_P1;SDS_P2;PMS_P1;PMS_P2;Temp;Humidity;BMP_temperature;BMP_pressure;BME280_temperature;BME280_humidity;BME280_pressure;Samples;Min_cycle;Max_cycle;Signal;HPM_P1;HPM_P2
2022/10/04 00:01:05;;;;;;;1999.90;999.90;;;13.50;99.90;;;;;;5082619;28;20464;-75
2022/10/04 00:03:37;;;;;;;1999.90;999.90;;;13.40;99.90;;;;;;5086983;28;20448;-78
2022/10/04 00:06:12;;;;;;;1999.90;999.90;;;13.30;99.90;;;;;;5090985;28;20452;-76
2022/10/04 00:08:48;;;;;;;1999.90;999.90;;;13.30;99.90;;;;;;5074744;28;20476;-76
2022/10/04 00:11:22;;;;;;;1999.90;999.90;;;13.20;99.90;;;;;;5068723;28;20489;-73
2022/10/04 00:13:52;;;;;;;1999.90;999.90;;;13.10;99.90;;;;;;5069186;28;20454;-76
2022/10/04 00:16:23;;;;;;;1999.90;999.90;;;13.10;99.90;;;;;;5070098;28;20461;-77
2022/10/04 00:19:01;;;;;;;1999.90;999.90;;;13.00;99.90;;;;;;5069378;28;20881;-76
2022/10/04 00:22:28;;;;;;;1999.90;999.90;;;12.90;99.90;;;;;;5067006;28;20445;-76
2022/10/04 00:25:20;;;;;;;1999.90;999.90;;;12.80;99.90;;;;;;5068095;28;20462;-76
2022/10/04 00:28:24;;;;;;;1999.90;999.90;;;12.70;99.90;;;;;;5064711;28;20546;-75
2022/10/04 00:31:07;;;;;;;1999.90;999.90;;;12.60;99.90;;;;;;5067958;28;20452;-76
2022/10/04 00:33:38;;;;;;;1999.90;999.90;;;12.50;99.90;;;;;;5070196;28;20469;-74
2022/10/04 00:36:37;;;;;;;1999.90;999.90;;;12.50;99.90;;;;;;5068352;28;20457;-73
2022/10/04 00:39:23;;;;;;;1999.90;999.90;;;12.50;99.90;;;;;;5068295;28;20477;-76
2022/10/04 00:41:59;;;;;;;1999.90;999.90;;;12.40;99.90;;;;;;5067475;28;20830;-76
2022/10/04 00:44:32;;;;;;;1999.90;999.90;;;12.30;99.90;;;;;;5064780;28;20460;-75
2022/10/04 00:47:01;;;;;;;1999.90;999.90;;;12.30;99.90;;;;;;5068974;28;20457;-75
2022/10/04 00:49:32;;;;;;;1999.90;999.90;;;12.20;99.90;;;;;;5066803;28;20462;-76
2022/10/04 00:52:04;;;;;;;1999.90;999.90;;;12.20;99.90;;;;;;5070764;28;20481;-77
2022/10/04 00:54:40;;;;;;;1999.90;999.90;;;12.20;99.90;;;;;;5069662;28;20457;-72
2022/10/04 00:57:11;;;;;;;1999.90;999.90;;;12.20;99.90;;;;;;5069563;28;20469;-76
2022/10/04 00:59:40;;;;;;;1999.90;999.90;;;12.20;99.90;;;;;;5067610;28;20461;-75
2022/10/04 01:02:15;;;;;;;1999.90;999.90;;;12.20;99.90;;;;;;5068474;28;20464;-74
2022/10/04 01:04:47;;;;;;;1999.90;999.90;;;12.20;99.90;;;;;;5074063;28;20798;-74
2022/10/04 01:07:21;;;;;;;1999.90;999.90;;;12.10;99.90;;;;;;5073749;28;20461;-74
2022/10/04 01:09:54;;;;;;;1999.90;999.90;;;12.10;99.90;;;;;;5069401;28;20457;-74
2022/10/04 01:12:42;;;;;;;1999.90;999.90;;;12.10;99.90;;;;;;5070871;28;20796;-75
2022/10/04 01:15:14;;;;;;;1999.90;999.90;;;12.10;99.90;;;;;;5067215;28;20462;-76
2022/10/04 01:17:41;;;;;;;1999.90;999.90;;;12.00;99.90;;;;;;5068738;28;20477;-75
2022/10/04 01:20:29;;;;;;;1999.90;999.90;;;12.00;99.90;;;;;;5068909;28;20453;-77
2022/10/04 01:22:57;;;;;;;1999.90;999.90;;;11.90;99.90;;;;;;5066178;28;21012;-76
2022/10/04 01:25:46;;;;;;;1999.90;999.90;;;11.90;99.90;;;;;;5069773;28;20800;-77
2022/10/04 01:28:13;;;;;;;1999.90;999.90;;;11.90;99.90;;;;;;5069682;28;20485;-76
2022/10/04 01:30:40;;;;;;;1999.90;999.90;;;11.90;99.90;;;;;;5066397;28;20465;-72
2022/10/04 01:33:07;;;;;;;1999.90;999.90;;;11.90;99.90;;;;;;5068558;28;20915;-75
2022/10/04 01:35:34;;;;;;;1999.90;999.90;;;11.90;99.90;;;;;;5068819;28;20461;-74
2022/10/04 01:38:06;;;;;;;1999.90;999.90;;;11.90;99.90;;;;;;5067391;28;20610;-74
2022/10/04 01:40:33;;;;;;;1999.90;999.90;;;11.80;99.90;;;;;;5069104;28;20480;-75
2022/10/04 01:43:04;;;;;;;1999.90;999.90;;;11.80;99.90;;;;;;5069483;28;20466;-75
2022/10/04 01:45:36;;;;;;;1999.90;999.90;;;11.80;99.90;;;;;;5067325;28;20465;-75
2022/10/04 01:48:08;;;;;;;1999.90;999.90;;;11.80;99.90;;;;;;5067841;28;20481;-73
2022/10/04 01:50:39;;;;;;;1999.90;999.90;;;11.80;99.90;;;;;;5068389;28;20493;-75
2022/10/04 01:53:13;;;;;;;1999.90;999.90;;;11.80;99.90;;;;;;5066473;28;20473;-76
2022/10/04 01:55:44;;;;;;;1999.90;999.90;;;11.70;99.90;;;;;;5068119;28;20545;-73
2022/10/04 01:58:16;;;;;;;1999.90;999.90;;;11.80;99.90;;;;;;5068505;28;20871;-75
2022/10/04 02:00:49;;;;;;;1999.90;999.90;;;11.80;99.90;;;;;;5066377;28;20851;-75
2022/10/04 02:03:20;;;;;;;1999.90;999.90;;;11.70;99.90;;;;;;5068062;28;20453;-74
2022/10/04 02:05:52;;;;;;;1999.90;999.90;;;11.80;99.90;;;;;;5068404;28;20458;-76
2022/10/04 02:08:25;;;;;;;1999.90;999.90;;;11.80;99.90;;;;;;5066835;28;20993;-75
2022/10/04 02:10:53;;;;;;;1999.90;999.90;;;11.80;99.90;;;;;;5067500;28;20457;-77
2022/10/04 02:13:21;;;;;;;1999.90;999.90;;;11.90;99.90;;;;;;5068364;28;20492;-74
2022/10/04 02:15:49;;;;;;;1999.90;999.90;;;11.90;99.90;;;;;;5067353;28;20457;-77
2022/10/04 02:18:19;;;;;;;1999.90;999.90;;;11.80;99.90;;;;;;5068376;28;20481;-74
2022/10/04 02:20:48;;;;;;;1999.90;999.90;;;11.80;99.90;;;;;;5066194;28;20544;-77
2022/10/04 02:23:18;;;;;;;1999.90;999.90;;;11.80;99.90;;;;;;5068107;28;20453;-74
2022/10/04 02:25:47;;;;;;;1999.90;999.90;;;11.80;99.90;;;;;;5067523;28;20457;-76
2022/10/04 02:28:17;;;;;;;1999.90;999.90;;;11.80;99.90;;;;;;5067632;28;20484;-76
2022/10/04 02:32:56;;;;;;;1999.90;999.90;;;11.90;99.90;;;;;;5065516;28;20954;-74
2022/10/04 02:33:37;;;;;;;1999.90;999.90;;;11.90;99.90;;;;;;5061966;28;20477;-74
2022/10/04 02:36:05;;;;;;;1999.90;999.90;;;11.90;99.90;;;;;;5066109;28;20465;-76
2022/10/04 02:38:36;;;;;;;1999.90;999.90;;;11.80;99.90;;;;;;5066524;28;20540;-75
2022/10/04 02:41:12;;;;;;;1999.90;999.90;;;11.80;99.90;;;;;;5064225;28;20470;-75
2022/10/04 02:43:43;;;;;;;1999.90;999.90;;;11.80;99.90;;;;;;5068511;28;20484;-76
2022/10/04 02:46:16;;;;;;;1999.90;999.90;;;11.80;99.90;;;;;;5065749;28;20969;-76
2022/10/04 02:48:47;;;;;;;1999.90;999.90;;;12.00;99.90;;;;;;5066076;28;20565;-73
2022/10/04 02:51:24;;;;;;;1999.90;999.90;;;12.20;99.90;;;;;;5064873;28;20468;-77
2022/10/04 02:53:57;;;;;;;1999.90;999.90;;;11.90;99.90;;;;;;5067666;28;20492;-76
2022/10/04 02:56:26;;;;;;;1999.90;999.90;;;11.90;99.90;;;;;;5068122;28;20461;-77
2022/10/04 02:58:54;;;;;;;1999.90;999.90;;;11.80;99.90;;;;;;5066208;28;20490;-76
2022/10/04 03:01:28;;;;;;;1999.90;999.90;;;11.90;99.90;;;;;;5065355;28;20527;-76
2022/10/04 03:03:58;;;;;;;1999.90;999.90;;;11.90;99.90;;;;;;5066198;28;20468;-76
2022/10/04 03:06:31;;;;;;;1999.90;999.90;;;11.90;99.90;;;;;;5066912;28;20457;-74
2022/10/04 03:09:01;;;;;;;1999.90;999.90;;;11.90;99.90;;;;;;5066075;28;20477;-77
2022/10/04 03:11:34;;;;;;;1999.90;999.90;;;12.00;99.90;;;;;;5065857;28;20472;-77
2022/10/04 03:14:04;;;;;;;1999.90;999.90;;;11.90;99.90;;;;;;5064620;28;20477;-75
2022/10/04 03:16:35;;;;;;;1999.90;999.90;;;12.00;99.90;;;;;;5066592;28;20457;-76
2022/10/04 03:19:02;;;;;;;1999.90;999.90;;;12.00;99.90;;;;;;5068251;28;20483;-74
2022/10/04 03:21:32;;;;;;;1999.90;999.90;;;12.00;99.90;;;;;;5069054;28;20457;-76
2022/10/04 03:24:00;;;;;;;1999.90;999.90;;;12.00;99.90;;;;;;5067555;28;20465;-76
2022/10/04 03:26:33;;;;;;;1999.90;999.90;;;12.00;99.90;;;;;;5067109;28;20515;-76
2022/10/04 03:29:01;;;;;;;1999.90;999.90;;;12.00;99.90;;;;;;5066249;28;20473;-75
2022/10/04 03:31:29;;;;;;;1999.90;999.90;;;12.10;99.90;;;;;;5065852;28;20458;-76
2022/10/04 03:33:57;;;;;;;1999.90;999.90;;;12.00;99.90;;;;;;5065808;28;20496;-76
2022/10/04 03:36:26;;;;;;;1999.90;999.90;;;12.00;99.90;;;;;;5066683;28;20484;-76
2022/10/04 03:38:55;;;;;;;1999.90;999.90;;;12.10;99.90;;;;;;5070437;28;20481;-76
2022/10/04 03:41:24;;;;;;;1999.90;999.90;;;12.10;99.90;;;;;;5068864;28;20457;-76
2022/10/04 03:43:54;;;;;;;1999.90;999.90;;;12.10;99.90;;;;;;5069653;28;20454;-76
2022/10/04 03:46:23;;;;;;;1999.90;999.90;;;12.10;99.90;;;;;;5071087;28;20868;-76
2022/10/04 03:48:53;;;;;;;1999.90;999.90;;;12.10;99.90;;;;;;5070328;28;20476;-75
2022/10/04 03:51:22;;;;;;;1999.90;999.90;;;12.20;99.90;;;;;;5069304;28;20479;-76
2022/10/04 03:53:51;;;;;;;1999.90;999.90;;;12.40;99.90;;;;;;5073006;28;20488;-75
2022/10/04 03:56:24;;;;;;;1999.90;999.90;;;12.10;99.90;;;;;;5071246;28;20846;-72
2022/10/04 03:58:53;;;;;;;1999.90;999.90;;;12.10;99.90;;;;;;5071660;28;20875;-76
2022/10/04 04:01:37;;;;;;;1999.90;999.90;;;12.10;99.90;;;;;;5070784;28;20948;-75
2022/10/04 04:04:14;;;;;;;1999.90;999.90;;;12.10;99.90;;;;;;5068860;28;20511;-76
2022/10/04 04:06:47;;;;;;;1999.90;999.90;;;12.10;99.90;;;;;;5068669;28;20536;-76
2022/10/04 04:09:21;;;;;;;1999.90;999.90;;;12.10;99.90;;;;;;5072544;28;20489;-76
2022/10/04 04:11:50;;;;;;;1999.90;999.90;;;12.10;99.90;;;;;;5069439;28;20456;-74
2022/10/04 04:14:23;;;;;;;1999.90;999.90;;;12.10;99.90;;;;;;5071147;28;20866;-73
2022/10/04 04:16:52;;;;;;;1999.90;999.90;;;12.10;99.90;;;;;;5069738;28;20453;-76
2022/10/04 04:19:23;;;;;;;1999.90;999.90;;;12.10;99.90;;;;;;5072158;28;20523;-77
2022/10/04 04:21:51;;;;;;;1999.90;999.90;;;12.20;99.90;;;;;;5070997;28;20460;-72
2022/10/04 04:24:24;;;;;;;1999.90;999.90;;;12.20;99.90;;;;;;5070731;28;20457;-73
2022/10/04 04:26:56;;;;;;;1999.90;999.90;;;12.10;99.90;;;;;;5069186;28;20457;-73
2022/10/04 04:29:30;;;;;;;1999.90;999.90;;;12.00;99.90;;;;;;5069965;28;20857;-76
2022/10/04 04:32:00;;;;;;;1999.90;999.90;;;12.30;99.90;;;;;;5070766;28;20464;-76
2022/10/04 04:34:30;;;;;;;1999.90;999.90;;;12.00;99.90;;;;;;5070794;28;20481;-73
2022/10/04 04:36:59;;;;;;;1999.90;999.90;;;12.00;99.90;;;;;;5066454;28;20973;-75
2022/10/04 04:39:39;;;;;;;1999.90;999.90;;;12.00;99.90;;;;;;5071102;28;20465;-75
2022/10/04 04:42:14;;;;;;;1999.90;999.90;;;12.00;99.90;;;;;;5071992;28;20461;-75
2022/10/04 04:44:48;;;;;;;1999.90;999.90;;;12.00;99.90;;;;;;5071582;28;20487;-76
2022/10/04 04:47:26;;;;;;;1999.90;999.90;;;11.90;99.90;;;;;;5068466;28;20980;-74
2022/10/04 04:49:55;;;;;;;1999.90;999.90;;;12.00;99.90;;;;;;5070608;28;20457;-74
2022/10/04 04:52:26;;;;;;;1999.90;999.90;;;12.00;99.90;;;;;;5071490;28;20462;-76
2022/10/04 04:54:53;;;;;;;1999.90;999.90;;;12.00;99.90;;;;;;5070232;28;20489;-73
2022/10/04 04:57:20;;;;;;;1999.90;999.90;;;12.10;99.90;;;;;;5068919;28;20505;-71
2022/10/04 04:59:53;;;;;;;1999.90;999.90;;;11.90;99.90;;;;;;5069606;28;20983;-75
2022/10/04 05:02:33;;;;;;;1999.90;999.90;;;11.80;99.90;;;;;;5070602;28;20856;-75
2022/10/04 05:05:22;;;;;;;1999.90;999.90;;;11.80;99.90;;;;;;5070630;28;20453;-76
2022/10/04 05:07:49;;;;;;;1999.90;999.90;;;11.90;99.90;;;;;;5069772;28;20477;-75
2022/10/04 05:10:31;;;;;;;1999.90;999.90;;;11.80;99.90;;;;;;5070625;28;20469;-75
2022/10/04 05:12:59;;;;;;;1999.90;999.90;;;11.80;99.90;;;;;;5070392;28;20453;-75
2022/10/04 05:15:32;;;;;;;1999.90;999.90;;;11.80;99.90;;;;;;5071165;28;20474;-74
2022/10/04 05:17:59;;;;;;;1999.90;999.90;;;11.90;99.90;;;;;;5068651;28;20481;-76
2022/10/04 05:20:27;;;;;;;1999.90;999.90;;;11.80;99.90;;;;;;5070155;28;20457;-76
2022/10/04 05:22:54;;;;;;;1999.90;999.90;;;11.80;99.90;;;;;;5070063;28;20953;-75
2022/10/04 05:25:28;;;;;;;1999.90;999.90;;;11.80;99.90;;;;;;5070768;28;20465;-76
2022/10/04 05:27:55;;;;;;;1999.90;999.90;;;11.80;99.90;;;;;;5068564;28;20573;-74
2022/10/04 05:30:37;;;;;;;1999.90;999.90;;;11.80;99.90;;;;;;5070475;28;20461;-75
2022/10/04 05:33:07;;;;;;;1999.90;999.90;;;11.80;99.90;;;;;;5068914;28;20461;-77
2022/10/04 05:35:49;;;;;;;1999.90;999.90;;;11.80;99.90;;;;;;5064158;28;20545;-74
2022/10/04 05:38:26;;;;;;;1999.90;999.90;;;11.80;99.90;;;;;;5069291;28;21037;-74
2022/10/04 05:41:00;;;;;;;1999.90;999.90;;;11.80;99.90;;;;;;5072332;28;20461;-71
2022/10/04 05:43:32;;;;;;;1999.90;999.90;;;11.80;99.90;;;;;;5077411;28;20454;-78
2022/10/04 05:46:21;;;;;;;1999.90;999.90;;;11.90;99.90;;;;;;5073076;28;20457;-76
2022/10/04 05:48:53;;;;;;;1999.90;999.90;;;11.90;99.90;;;;;;5066890;28;20469;-76
2022/10/04 05:51:22;;;;;;;1999.90;999.90;;;11.90;99.90;;;;;;5070734;28;20465;-76
2022/10/04 05:53:51;;;;;;;1999.90;999.90;;;11.90;99.90;;;;;;5070351;28;20568;-76
2022/10/04 05:56:50;;;;;;;1999.90;999.90;;;11.90;99.90;;;;;;5069061;28;20453;-76
2022/10/04 05:59:35;;;;;;;1999.90;999.90;;;11.90;99.90;;;;;;5094954;22;20495;-70
2022/10/04 06:02:12;;;;;;;1999.90;999.90;;;11.90;99.90;;;;;;5084838;28;20615;-69
2022/10/04 06:04:54;;;;;;;1999.90;999.90;;;12.00;99.90;;;;;;5088231;28;20456;-70
2022/10/04 06:07:26;;;;;;;1999.90;999.90;;;11.90;99.90;;;;;;5088720;28;20509;-69
2022/10/04 06:10:29;;;;;;;1999.90;999.90;;;12.00;99.90;;;;;;5069947;28;20496;-69
2022/10/04 06:13:02;;;;;;;1999.90;999.90;;;12.00;99.90;;;;;;5055604;28;20469;-69
2022/10/04 06:15:56;;;;;;;1999.90;999.90;;;12.10;99.90;;;;;;5061859;28;21027;-68
2022/10/04 06:18:51;;;;;;;1999.90;999.90;;;12.10;99.90;;;;;;5062032;28;20487;-69
2022/10/04 06:21:24;;;;;;;1999.90;999.90;;;12.20;99.90;;;;;;5060462;28;20972;-69
2022/10/04 06:23:57;;;;;;;1999.90;999.90;;;12.20;99.90;;;;;;5055519;28;20458;-69
2022/10/04 06:26:29;;;;;;;1999.90;999.90;;;12.20;99.90;;;;;;5066052;28;20458;-68
2022/10/04 06:29:00;;;;;;;1999.90;999.90;;;12.20;99.90;;;;;;5069355;28;20465;-69
2022/10/04 06:31:53;;;;;;;1999.90;999.90;;;12.20;99.90;;;;;;5051903;28;20450;-69
2022/10/04 06:34:52;;;;;;;1999.90;999.90;;;12.20;99.90;;;;;;5051741;28;20485;-69
2022/10/04 06:37:41;;;;;;;1999.90;999.90;;;12.30;99.90;;;;;;5051187;28;20453;-70
2022/10/04 06:40:37;;;;;;;1999.90;999.90;;;12.30;99.90;;;;;;5051695;28;20467;-69
2022/10/04 06:43:20;;;;;;;1999.90;999.90;;;12.30;99.90;;;;;;5053841;28;20435;-69
2022/10/04 06:46:00;;;;;;;1999.90;999.90;;;12.30;99.90;;;;;;5074205;28;20457;-68
2022/10/04 06:48:55;;;;;;;1999.90;999.90;;;12.40;99.90;;;;;;5073169;28;20472;-69
2022/10/04 06:51:50;;;;;;;1999.90;999.90;;;12.40;99.90;;;;;;5069434;28;20523;-69
2022/10/04 06:54:35;;;;;;;1999.90;999.90;;;12.60;99.90;;;;;;5063829;28;20493;-69
2022/10/04 06:57:31;;;;;;;1999.90;999.90;;;12.60;99.90;;;;;;5069154;28;20450;-69
2022/10/04 07:00:07;;;;;;;1999.90;999.90;;;12.60;99.90;;;;;;5064005;28;20486;-70
2022/10/04 07:02:40;;;;;;;1999.90;999.90;;;12.60;99.90;;;;;;5069811;28;20567;-69
2022/10/04 07:05:17;;;;;;;1999.90;999.90;;;12.80;99.90;;;;;;5065607;28;20540;-68
2022/10/04 07:07:49;;;;;;;1999.90;999.90;;;12.80;99.90;;;;;;5068806;28;20449;-69
2022/10/04 07:10:28;;;;;;;1999.90;999.90;;;12.80;99.90;;;;;;5068560;28;20626;-70
2022/10/04 07:13:09;;;;;;;1999.90;999.90;;;12.80;99.90;;;;;;5068649;28;20968;-70
2022/10/04 07:15:45;;;;;;;1999.90;999.90;;;12.80;99.90;;;;;;5062907;28;20488;-69
2022/10/04 07:18:15;;;;;;;1999.90;999.90;;;12.90;99.90;;;;;;5064751;28;20457;-69
2022/10/04 07:20:42;;;;;;;1999.90;999.90;;;13.00;99.90;;;;;;5073054;28;20446;-69
2022/10/04 07:23:17;;;;;;;1999.90;999.90;;;13.10;99.90;;;;;;5064163;28;20461;-69
2022/10/04 07:25:47;;;;;;;1999.90;999.90;;;13.20;99.90;;;;;;5072557;28;20848;-69
2022/10/04 07:31:11;;;;;;;1999.90;999.90;;;13.30;99.90;;;;;;5064836;28;20425;-68
2022/10/04 07:33:44;;;;;;;1999.90;999.90;;;13.50;99.90;;;;;;5068806;28;20454;-70
2022/10/04 07:36:13;;;;;;;1999.90;999.90;;;13.50;99.90;;;;;;5063290;28;20468;-70
2022/10/04 07:38:48;;;;;;;1999.90;999.90;;;13.60;99.90;;;;;;5061797;28;20488;-69
2022/10/04 07:41:23;;;;;;;1999.90;999.90;;;13.70;99.90;;;;;;5066049;28;20547;-69
2022/10/04 07:43:55;;;;;;;1999.90;999.90;;;13.90;99.90;;;;;;5064744;28;20462;-72
2022/10/04 07:46:39;;;;;;;1999.90;999.90;;;14.10;99.90;;;;;;5071278;28;20461;-72
2022/10/04 07:49:13;;;;;;;1999.90;999.90;;;14.10;99.90;;;;;;5067702;28;20493;-71
2022/10/04 07:52:01;;;;;;;1999.90;999.90;;;14.00;99.90;;;;;;5068189;28;20979;-71
2022/10/04 07:54:37;;;;;;;1999.90;999.90;;;14.10;99.90;;;;;;5063638;28;20595;-70
2022/10/04 07:57:11;;;;;;;1999.90;999.90;;;14.20;99.90;;;;;;5063465;28;20455;-71
2022/10/04 07:59:47;;;;;;;1999.90;999.90;;;14.30;99.90;;;;;;5076508;28;20473;-72
2022/10/04 08:02:25;;;;;;;1999.90;999.90;;;14.60;99.90;;;;;;5059037;28;20466;-71
2022/10/04 08:05:01;;;;;;;1999.90;999.90;;;14.60;99.90;;;;;;5056588;28;20485;-70
2022/10/04 08:07:45;;;;;;;1999.90;999.90;;;14.70;99.90;;;;;;5063366;28;20460;-71
2022/10/04 08:10:24;;;;;;;1999.90;999.90;;;14.70;99.90;;;;;;5069530;28;20889;-71
2022/10/04 08:12:57;;;;;;;1999.90;999.90;;;15.00;99.90;;;;;;5059983;28;20462;-73
2022/10/04 08:15:35;;;;;;;1999.90;999.90;;;15.30;99.90;;;;;;5069620;28;20846;-72
2022/10/04 08:18:18;;;;;;;1999.90;999.90;;;15.60;99.90;;;;;;5056343;28;20454;-71
2022/10/04 08:20:49;;;;;;;1999.90;999.90;;;15.80;99.90;;;;;;5054163;28;20836;-72
2022/10/04 08:23:48;;;;;;;1999.90;999.90;;;16.10;99.90;;;;;;5055730;28;20474;-71
2022/10/04 08:26:44;;;;;;;1999.90;999.90;;;16.20;99.90;;;;;;5062904;28;20459;-70
2022/10/04 08:29:42;;;;;;;1999.90;999.90;;;16.30;99.90;;;;;;5066620;28;20488;-72
2022/10/04 08:32:22;;;;;;;1999.90;999.90;;;16.50;99.90;;;;;;5065025;28;20957;-69
2022/10/04 08:35:21;;;;;;;1999.90;999.90;;;16.90;99.90;;;;;;5062612;28;20535;-70
2022/10/04 08:38:07;;;;;;;1999.90;999.90;;;17.20;99.90;;;;;;5069193;28;20532;-70
2022/10/04 08:41:07;;;;;;;1999.90;999.90;;;17.10;99.90;;;;;;5073917;28;20441;-70
2022/10/04 08:44:30;;;;;;;1999.90;999.90;;;17.20;99.90;;;;;;5053291;28;20472;-69
2022/10/04 08:47:39;;;;;;;1999.90;999.90;;;17.00;99.90;;;;;;5073147;28;20461;-70
2022/10/04 08:50:26;;;;;;;1999.90;999.90;;;16.90;99.90;;;;;;5053785;28;20549;-70
2022/10/04 08:53:23;;;;;;;1999.90;999.90;;;17.10;99.90;;;;;;5053891;28;20453;-71
2022/10/04 08:56:10;;;;;;;1999.90;999.90;;;17.60;99.90;;;;;;5052488;28;20481;-70
2022/10/04 08:59:05;;;;;;;1999.90;999.90;;;17.90;99.90;;;;;;5066617;28;20992;-70
2022/10/04 09:02:03;;;;;;;1999.90;999.90;;;18.20;99.90;;;;;;5073959;28;20513;-70
2022/10/04 09:05:08;;;;;;;1999.90;999.90;;;18.70;99.90;;;;;;5073623;28;20449;-68
2022/10/04 09:08:14;;;;;;;1999.90;999.90;;;18.80;99.90;;;;;;5065563;28;20973;-69
2022/10/04 09:10:50;;;;;;;1999.90;999.90;;;18.90;99.90;;;;;;5044077;28;20450;-69
2022/10/04 09:13:36;;;;;;;1999.90;999.90;;;18.80;99.90;;;;;;5072059;28;20465;-68
2022/10/04 09:16:16;;;;;;;1999.90;999.90;;;18.80;99.90;;;;;;5064056;28;20556;-70
2022/10/04 09:18:59;;;;;;;1999.90;999.90;;;18.70;99.90;;;;;;5064687;28;20485;-70
2022/10/04 09:21:43;;;;;;;1999.90;999.90;;;18.50;99.90;;;;;;5068698;28;20956;-70
2022/10/04 09:24:47;;;;;;;1999.90;999.90;;;18.00;99.90;;;;;;5075693;28;20464;-70
2022/10/04 09:27:35;;;;;;;1999.90;999.90;;;17.80;99.90;;;;;;5068690;28;20460;-68
2022/10/04 09:30:16;;;;;;;1999.90;999.90;;;17.90;99.90;;;;;;5070737;28;20507;-70
2022/10/04 09:33:04;;;;;;;1999.90;999.90;;;17.90;99.90;;;;;;5069150;28;20540;-70
2022/10/04 09:36:00;;;;;;;1999.90;999.90;;;17.80;99.90;;;;;;5059084;28;20492;-70
2022/10/04 09:39:02;;;;;;;1999.90;999.90;;;17.80;99.90;;;;;;5050919;28;20482;-69
2022/10/04 09:41:39;;;;;;;1999.90;999.90;;;17.90;99.90;;;;;;5069858;28;20461;-70
2022/10/04 09:44:45;;;;;;;1999.90;999.90;;;18.10;99.90;;;;;;5068785;28;20462;-70
2022/10/04 09:47:30;;;;;;;1999.90;999.90;;;18.20;99.90;;;;;;5059794;28;20492;-68
2022/10/04 09:50:38;;;;;;;1999.90;999.90;;;18.00;99.90;;;;;;5065643;28;20993;-69
2022/10/04 09:53:18;;;;;;;1999.90;999.90;;;17.80;99.90;;;;;;5053552;28;20888;-70
2022/10/04 09:56:03;;;;;;;1999.90;999.90;;;17.60;99.90;;;;;;5070099;28;21005;-68
2022/10/04 09:59:06;;;;;;;1999.90;999.90;;;17.70;99.90;;;;;;5060729;28;20492;-70
2022/10/04 10:01:39;;;;;;;1999.90;999.90;;;18.20;99.90;;;;;;5078707;28;20965;-70
2022/10/04 10:04:25;;;;;;;1999.90;999.90;;;18.30;99.90;;;;;;5089939;28;20443;-70
2022/10/04 10:07:13;;;;;;;1999.90;999.90;;;18.10;99.90;;;;;;5064189;28;20966;-70
2022/10/04 10:15:58;;;;;;;1999.90;999.90;;;18.40;99.90;;;;;;5063900;28;20465;-70
2022/10/04 10:18:36;;;;;;;1999.90;999.90;;;18.50;99.90;;;;;;5063941;28;20472;-69
2022/10/04 10:21:14;;;;;;;1999.90;999.90;;;18.40;99.90;;;;;;5080480;28;20447;-70
2022/10/04 10:24:29;;;;;;;1999.90;999.90;;;18.30;99.90;;;;;;5072249;28;20448;-70
2022/10/04 10:27:26;;;;;;;1999.90;999.90;;;18.50;99.90;;;;;;4989253;28;20575;-70
2022/10/04 10:30:11;;;;;;;1999.90;999.90;;;18.60;99.90;;;;;;4993484;28;20541;-71
2022/10/04 10:33:10;;;;;;;1999.90;999.90;;;18.70;99.90;;;;;;5052782;28;20446;-70
2022/10/04 10:35:54;;;;;;;1999.90;999.90;;;18.70;99.90;;;;;;5071745;28;20508;-70
2022/10/04 10:38:39;;;;;;;1999.90;999.90;;;18.40;99.90;;;;;;5063523;28;20472;-73
2022/10/04 10:41:34;;;;;;;1999.90;999.90;;;18.20;99.90;;;;;;5069365;28;20487;-71
2022/10/04 10:44:21;;;;;;;1999.90;999.90;;;18.50;99.90;;;;;;5055289;28;20466;-70
2022/10/04 10:47:15;;;;;;;1999.90;999.90;;;19.20;99.90;;;;;;5065212;28;20453;-70
2022/10/04 10:49:55;;;;;;;1999.90;999.90;;;20.10;99.90;;;;;;5058878;28;20489;-73
2022/10/04 10:52:58;;;;;;;1999.90;999.90;;;20.30;99.90;;;;;;5065012;28;20457;-73
2022/10/04 10:55:41;;;;;;;1999.90;999.90;;;19.80;99.00;;;;;;5056554;28;20562;-70
2022/10/04 10:58:43;;;;;;;1999.90;999.90;;;19.60;99.90;;;;;;5056786;28;20466;-73
2022/10/04 11:01:30;;;;;;;1999.90;999.90;;;20.50;99.90;;;;;;5064998;28;22295;-73
2022/10/04 11:04:38;;;;;;;1999.90;999.90;;;20.80;98.60;;;;;;5055205;28;20469;-74
2022/10/04 11:07:43;;;;;;;1999.90;999.90;;;20.80;98.20;;;;;;5053832;28;20849;-73
2022/10/04 11:10:44;;;;;;;1999.90;999.90;;;20.60;98.10;;;;;;5055854;28;21022;-73
2022/10/04 11:13:29;;;;;;;1999.90;999.90;;;20.40;98.50;;;;;;5065902;28;20477;-73
2022/10/04 11:16:18;;;;;;;1999.90;999.90;;;20.30;98.70;;;;;;5082828;28;20460;-74
2022/10/04 11:19:19;;;;;;;1999.90;999.90;;;20.00;99.50;;;;;;5065446;28;20461;-73
2022/10/04 11:22:21;;;;;;;1999.90;999.90;;;20.10;99.50;;;;;;5050313;28;20457;-74
2022/10/04 11:25:28;;;;;;;1999.90;999.90;;;19.90;99.00;;;;;;5050821;28;20823;-73
2022/10/04 11:28:05;;;;;;;1999.90;999.90;;;20.10;99.00;;;;;;5058363;28;20523;-73
2022/10/04 11:31:01;;;;;;;1999.90;999.90;;;19.80;99.00;;;;;;5064108;28;20468;-73
2022/10/04 11:34:11;;;;;;;1999.90;999.90;;;19.70;98.80;;;;;;5071052;28;20906;-73
2022/10/04 11:36:55;;;;;;;1999.90;999.90;;;19.40;99.00;;;;;;5069852;28;20474;-73
2022/10/04 11:39:51;;;;;;;1999.90;999.90;;;19.60;99.20;;;;;;5070006;28;21077;-74
2022/10/04 11:42:30;;;;;;;1999.90;999.90;;;19.60;99.10;;;;;;5071574;28;20438;-73
2022/10/04 11:45:35;;;;;;;1999.90;999.90;;;19.50;99.20;;;;;;5070899;28;20429;-73
2022/10/04 11:48:14;;;;;;;1999.90;999.90;;;19.40;99.90;;;;;;5062968;28;20472;-73
2022/10/04 11:51:02;;;;;;;1999.90;999.90;;;19.40;99.90;;;;;;5065870;28;20453;-73
2022/10/04 11:54:13;;;;;;;1999.90;999.90;;;19.70;99.40;;;;;;5065595;28;20540;-73
2022/10/04 11:57:03;;;;;;;1999.90;999.90;;;19.70;99.60;;;;;;5064226;28;20480;-73
2022/10/04 11:59:41;;;;;;;1999.90;999.90;;;19.80;99.90;;;;;;5089647;22;20507;-73
2022/10/04 12:02:41;;;;;;;1999.90;999.90;;;19.90;98.80;;;;;;5089681;28;20757;-76
2022/10/04 12:05:38;;;;;;;1999.90;999.90;;;20.10;99.70;;;;;;5088622;28;20471;-77
2022/10/04 12:08:21;;;;;;;1999.90;999.90;;;20.30;98.90;;;;;;5092376;28;20448;-77
2022/10/04 12:11:16;;;;;;;1999.90;999.90;;;20.40;98.30;;;;;;5076401;28;21026;-77
2022/10/04 12:14:02;;;;;;;1999.90;999.90;;;20.50;99.90;;;;;;5071087;28;20464;-76
2022/10/04 12:16:48;;;;;;;1999.90;999.90;;;20.50;99.90;;;;;;5065811;28;20477;-76
2022/10/04 12:19:53;;;;;;;1999.90;999.90;;;20.50;98.90;;;;;;5069610;28;20492;-76
2022/10/04 12:22:59;;;;;;;1999.90;999.90;;;20.50;97.70;;;;;;5071251;28;20878;-76
2022/10/04 12:26:05;;;;;;;1999.90;999.90;;;20.30;98.40;;;;;;5023491;28;20831;-77
2022/10/04 12:28:52;;;;;;;1999.90;999.90;;;20.30;98.10;;;;;;5065230;28;20880;-77
2022/10/04 12:31:26;;;;;;;1999.90;999.90;;;20.10;99.00;;;;;;5069512;28;20457;-75
2022/10/04 12:34:03;;;;;;;1999.90;999.90;;;19.80;99.50;;;;;;5071602;28;20461;-74
2022/10/04 12:37:05;;;;;;;1999.90;999.90;;;19.90;98.90;;;;;;5068156;28;21023;-77
2022/10/04 12:39:52;;;;;;;1999.90;999.90;;;20.00;99.10;;;;;;5046806;28;20496;-75
2022/10/04 12:42:33;;;;;;;1999.90;999.90;;;20.30;99.50;;;;;;5069877;28;20450;-78
2022/10/04 12:45:25;;;;;;;1999.90;999.90;;;20.40;99.90;;;;;;5069611;28;20489;-74
2022/10/04 12:48:05;;;;;;;1999.90;999.90;;;20.50;98.20;;;;;;5069607;28;20522;-74
2022/10/04 12:50:53;;;;;;;1999.90;999.90;;;20.60;98.00;;;;;;5066943;28;20493;-72
2022/10/04 12:53:33;;;;;;;1999.90;999.90;;;20.40;99.90;;;;;;5067995;28;20546;-76
2022/10/04 12:56:08;;;;;;;1999.90;999.90;;;20.20;98.90;;;;;;5067698;28;20469;-76
2022/10/04 12:58:52;;;;;;;1999.90;999.90;;;20.40;99.00;;;;;;5070215;28;20449;-75
2022/10/04 13:01:28;;;;;;;1999.90;999.90;;;20.40;98.30;;;;;;5068755;28;20456;-77
2022/10/04 13:04:19;;;;;;;1999.90;999.90;;;20.20;99.10;;;;;;5069880;28;20538;-76
2022/10/04 13:06:58;;;;;;;1999.90;999.90;;;20.30;97.70;;;;;;5066437;28;20510;-76
2022/10/04 13:09:40;;;;;;;1999.90;999.90;;;20.00;98.40;;;;;;5069394;28;20484;-78
2022/10/04 13:12:19;;;;;;;1999.90;999.90;;;19.80;99.40;;;;;;5069338;28;20796;-78